»·PEaware :: N333ZS KBUR-KSBA

N333ZS :: KBUR-KSBA

FLIGHT INFORMATION

Flight Status: Arrived
Operator: Privately registered:
United States
More flights under this callsign
Pilot: Judd H. (29974)
Aircraft: CESSNA 182 SKYLANE
(C182)
More flights by this aircraft type
Origin: KBUR Bob Hope-Burbank
United States
Destination: KSBA Santa Barbara Mun
United States
More flights between these airports :: More routes between these airports
Route: VTU
File this flight plan on PilotEdge
Remarks:
Altitude:
(Current/Filed)
5,500ft
Speed:
(Current/Filed)
120kts
Departed: 10-Aug-20 01:23 PM
Arrived: 10-Aug-20 02:19 PM
Distance/Time
Traveled:
75nm/0:56
Distance/Time
To Go:
Arrived

Flight Plot

Page will automatically refresh every two minutes.


Map Options




Map Legend


Flown Route
Filed Route
Departure Airport
Arrival Airport
Navaid (VOR, NDB)
Fix

Horizontal Profiles

Position Reports

Time Latitude Longitude Heading Altitude Ground
Speed
10-Aug-20 12:58 34.204449 -118.360068 63 724ft 0kts
10-Aug-20 12:59 34.204450 -118.360066 63 724ft 0kts
10-Aug-20 13:00 34.204450 -118.360065 63 724ft 0kts
10-Aug-20 13:01 34.204451 -118.360064 63 724ft 0kts
10-Aug-20 13:02 34.204451 -118.360063 63 724ft 0kts
10-Aug-20 13:03 34.204452 -118.360061 63 724ft 0kts
10-Aug-20 13:04 34.204452 -118.360060 63 724ft 0kts
10-Aug-20 13:06 34.204453 -118.360059 63 724ft 0kts
10-Aug-20 13:07 34.204453 -118.360058 63 724ft 0kts
10-Aug-20 13:08 34.204454 -118.360056 63 724ft 0kts
10-Aug-20 13:09 34.204454 -118.360055 63 724ft 0kts
10-Aug-20 13:10 34.204455 -118.360054 63 724ft 0kts
10-Aug-20 13:11 34.204455 -118.360053 63 724ft 0kts
10-Aug-20 13:12 34.204456 -118.360051 63 724ft 0kts
10-Aug-20 13:13 34.204457 -118.360050 63 724ft 0kts
10-Aug-20 13:14 34.204457 -118.360049 63 724ft 0kts
10-Aug-20 13:15 34.204458 -118.360048 63 724ft 0kts
10-Aug-20 13:16 34.204458 -118.360047 63 724ft 0kts
10-Aug-20 13:17 34.204459 -118.360045 63 724ft 0kts
10-Aug-20 13:18 34.206243 -118.359903 347 724ft 11kts
10-Aug-20 13:19 34.209809 -118.360884 345 724ft 15kts
10-Aug-20 13:20 34.211943 -118.361249 48 724ft 0kts
10-Aug-20 13:21 34.211944 -118.361248 48 724ft 0kts
10-Aug-20 13:22 34.211762 -118.360270 167 724ft 8kts
10-Aug-20 13:22 34.194466 -118.355911 169 915ft 105kts
10-Aug-20 13:24 34.161973 -118.344806 116 1530ft 120kts
10-Aug-20 13:25 34.169990 -118.304668 84 1998ft 123kts
10-Aug-20 13:25 34.172119 -118.269172 89 2202ft 129kts
10-Aug-20 13:26 34.174945 -118.225725 78 2608ft 117kts
10-Aug-20 13:27 34.195295 -118.199334 30 3479ft 108kts
10-Aug-20 13:28 34.219014 -118.178669 79 4205ft 103kts
10-Aug-20 13:29 34.202526 -118.163477 208 4846ft 93kts
10-Aug-20 13:30 34.204880 -118.193228 305 5392ft 111kts
10-Aug-20 13:31 34.227467 -118.224385 310 5553ft 136kts
10-Aug-20 13:32 34.254053 -118.259508 311 5548ft 144kts
10-Aug-20 13:33 34.280379 -118.296599 306 5541ft 144kts
10-Aug-20 13:34 34.289655 -118.342184 274 5542ft 140kts
10-Aug-20 13:35 34.294159 -118.389085 274 5538ft 140kts
10-Aug-20 13:36 34.296634 -118.436119 270 5540ft 139kts
10-Aug-20 13:37 34.298276 -118.483094 270 5540ft 139kts
10-Aug-20 13:38 34.298663 -118.529332 266 5615ft 137kts
10-Aug-20 13:39 34.297640 -118.576719 265 5505ft 141kts
10-Aug-20 13:40 34.290103 -118.622960 255 5499ft 139kts
10-Aug-20 13:41 34.289260 -118.669646 271 5501ft 139kts
10-Aug-20 13:42 34.293983 -118.716060 275 5500ft 139kts
10-Aug-20 13:43 34.299622 -118.762252 278 5500ft 139kts
10-Aug-20 13:44 34.306427 -118.808363 278 5505ft 139kts
10-Aug-20 13:45 34.311132 -118.855027 275 5510ft 139kts
10-Aug-20 13:46 34.313260 -118.901901 271 5514ft 139kts
10-Aug-20 13:47 34.315101 -118.948986 271 5514ft 140kts
10-Aug-20 13:48 34.316788 -118.995930 270 5580ft 134kts
10-Aug-20 13:49 34.315300 -119.039981 263 5601ft 131kts
10-Aug-20 13:50 34.312364 -119.084103 263 5613ft 131kts
10-Aug-20 13:51 34.309633 -119.128048 264 5615ft 131kts
10-Aug-20 13:52 34.306276 -119.171940 264 5613ft 131kts
10-Aug-20 13:53 34.303169 -119.217261 264 5373ft 142kts
10-Aug-20 13:54 34.299953 -119.266530 265 4877ft 148kts
10-Aug-20 13:55 34.297528 -119.316401 264 4381ft 148kts
10-Aug-20 13:56 34.295393 -119.365450 267 4102ft 139kts
10-Aug-20 13:57 34.293816 -119.411250 265 4111ft 134kts
10-Aug-20 13:58 34.302445 -119.453766 296 4124ft 136kts
10-Aug-20 13:59 34.319896 -119.494640 285 4111ft 137kts
10-Aug-20 14:00 34.331290 -119.536976 285 3588ft 97kts
10-Aug-20 14:01 34.340096 -119.567300 286 3155ft 113kts
10-Aug-20 14:02 34.355297 -119.603130 296 2681ft 115kts
10-Aug-20 14:03 34.372044 -119.633614 331 2144ft 108kts
10-Aug-20 14:04 34.398165 -119.628740 9 1948ft 94kts
10-Aug-20 14:05 34.424220 -119.626786 342 1657ft 94kts
10-Aug-20 14:06 34.438244 -119.647543 275 1459ft 78kts
10-Aug-20 14:07 34.435437 -119.676142 257 1316ft 99kts
10-Aug-20 14:08 34.430186 -119.710635 256 1211ft 104kts
10-Aug-20 14:09 34.419759 -119.741378 218 1211ft 98kts
10-Aug-20 14:10 34.396935 -119.729489 131 1220ft 104kts
10-Aug-20 14:11 34.388810 -119.697313 59 1320ft 102kts
10-Aug-20 14:12 34.413769 -119.694144 348 1533ft 102kts
10-Aug-20 14:13 34.430280 -119.719338 261 1531ft 110kts
10-Aug-20 14:14 34.429658 -119.754951 265 1194ft 89kts
10-Aug-20 14:15 34.429020 -119.782445 264 877ft 77kts
10-Aug-20 14:16 34.428384 -119.809625 265 436ft 79kts
10-Aug-20 14:17 34.427912 -119.835366 265 48ft 71kts
10-Aug-20 14:18 34.428196 -119.846148 48 13ft 5kts
10-Aug-20 14:19 34.429276 -119.843494 63 13ft 12kts
10-Aug-20 14:20 34.430030 -119.843228 162 13ft 0kts
10-Aug-20 14:21 34.430029 -119.843228 162 13ft 0kts
10-Aug-20 14:22 34.430029 -119.843228 162 13ft 0kts

Navigation Log

Ident Type
Flight plan parsing failed, navigation log unavailable